• Join FlightAware (Why Join?)
  • Login
  • US Flag 
09:51PM EDT


 

Airport Tracker/Info


-or-


 

Live Flight TrackerFlight Track Log ✈ BER6502 ✈ 17-Aug-2014 ✈ EDDK / CGN - EDDT / TXL

Flight Track Log - Related Links

Times and Time Zones

All times are in EDT time to prevent confusion due to time zone crossing. See the BER6502 flight status page for this flight to view local times or setup timezone preferences in your user account.

Time Position Orientation Groundspeed Altitude Reporting Facility
EDT Latitude Longitude Course Direction KTS MPH feet Rate Location/Type
11:05AM 51.0236 8.0799 62° Northeast  Level Estimated
11:06AM 51.0620 8.1973 62° Northeast  Level Estimated
11:07AM 51.1002 8.3149 63° Northeast  Level Estimated
11:08AM 51.1384 8.4327 63° Northeast  Level Estimated
11:09AM 51.1764 8.5506 63° Northeast  Level Estimated
11:10AM 51.2143 8.6688 63° Northeast  Level Estimated
11:11AM 51.2521 8.7872 63° Northeast  Level Estimated
11:11AM 51.6288 9.2761 50° Northeast 469 540 31,000  Level FlightAware ADS-B (EDDB / SXF)
11:11AM 51.6762 9.3670 50° Northeast 469 540 31,000  Level FlightAware ADS-B (EDDB / SXF)
11:12AM 51.7394 9.4897 50° Northeast 467 537 31,000  Level FlightAware ADS-B (EDDB / SXF)
11:13AM 51.7943 9.5965 50° Northeast 467 537 31,000  Level FlightAware ADS-B (EDDB / SXF)
11:13AM 51.8506 9.7038 51° Northeast 468 539 31,000  Level FlightAware ADS-B (EDDB / SXF)
11:14AM 51.9050 9.8116 51° Northeast 468 539 31,000  Level FlightAware ADS-B (EDDB / SXF)
11:15AM 51.9585 9.9173 51° Northeast 470 541 31,000  Level FlightAware ADS-B (EDDB / SXF)
11:15AM 52.0133 10.0235 51° Northeast 470 541 31,000  Level FlightAware ADS-B (EDDB / SXF)
11:16AM 52.0980 10.1925 51° Northeast 469 540 31,000  Level FlightAware ADS-B (EDDB / SXF)
11:17AM 52.1540 10.3018 51° Northeast 468 539 31,000  Level FlightAware ADS-B (EDDB / SXF)
11:18AM 52.2059 10.4061 51° Northeast 470 541 31,000  Level FlightAware ADS-B (EDDB / SXF)
11:18AM 52.2632 10.5218 51° Northeast 472 543 31,000  Level FlightAware ADS-B (EDDB / SXF)
11:19AM 52.3166 10.6295 51° Northeast 472 543 31,000 -420 Level FlightAware ADS-B (EDDB / SXF)
11:20AM 52.3710 10.7406 51° Northeast 472 543 30,500 -900 Descending FlightAware ADS-B (EDDB / SXF)
11:20AM 52.4280 10.8546 51° Northeast 473 544 29,800 -960 Descending FlightAware ADS-B (EDDB / SXF)
11:21AM 52.4831 10.9668 51° Northeast 476 548 29,200 -1,260 Descending FlightAware ADS-B (EDDB / SXF)
11:22AM 52.5344 11.0821 60° Northeast 472 543 28,200 -1,200 Descending FlightAware ADS-B (EDDB / SXF)
11:22AM 52.5519 11.1506 71° East 467 537 28,000 -900 Descending FlightAware ADS-B (EDDB / SXF)
11:23AM 52.5700 11.2851 79° East 463 533 27,300 -1,080 Descending FlightAware ADS-B (EDDB / SXF)
11:23AM 52.5867 11.4220 79° East 456 525 26,600 -1,020 Descending FlightAware ADS-B (EDDB / SXF)
11:24AM 52.6033 11.5576 79° East 453 521 26,000 -1,380 Descending FlightAware ADS-B (EDDB / SXF)
11:25AM 52.6145 11.6486 79° East 452 520 25,000 -2,100 Descending FlightAware ADS-B (EDDT / TXL)
11:25AM 52.6352 11.8216 79° East 442 509 23,300 -2,160 Descending FlightAware ADS-B (EDDB / SXF)
11:26AM 52.6503 11.9490 79° East 431 496 21,900 -2,160 Descending FlightAware ADS-B (EDDB / SXF)
11:27AM 52.6649 12.0736 79° East 424 488 20,500 -2,220 Descending FlightAware ADS-B (EDDB / SXF)
11:27AM 52.6759 12.1680 79° East 418 481 19,400 -2,100 Descending FlightAware ADS-B (EDDT / TXL)
11:28AM 52.6877 12.2735 80° East 410 472 18,300 -2,100 Descending FlightAware ADS-B (EDDB / SXF)
11:28AM 52.7015 12.3949 79° East 402 463 16,900 -2,100 Descending FlightAware ADS-B (EDDB / SXF)
11:29AM 52.7116 12.4846 79° East 396 456 15,900 -2,040 Descending FlightAware ADS-B (EDDT / TXL)
11:29AM 52.7218 12.5726 79° East 389 448 14,900 -1,980 Descending FlightAware ADS-B (EDDB / SXF)
11:30AM 52.7327 12.6710 80° East 382 440 13,800 -1,980 Descending FlightAware ADS-B (EDDT / TXL)
11:30AM 52.7423 12.7591 80° East 376 433 12,800 -1,860 Descending FlightAware ADS-B (EDDT / TXL)
11:31AM 52.7518 12.8455 80° East 369 425 11,900 -1,860 Descending FlightAware ADS-B (EDDT / TXL)
11:32AM 52.7613 12.9306 80° East 363 418 10,900 -1,500 Descending FlightAware ADS-B (EDDT / TXL)
11:32AM 52.7701 13.0110 80° East 347 399 10,400 -900 Descending FlightAware ADS-B (EDDT / TXL)
11:33AM 52.7782 13.0888 80° East 327 376 10,000 -1,080 Descending FlightAware ADS-B (EDDT / TXL)
11:33AM 52.7823 13.1280 80° East 325 374 9,600 -1,320 Descending FlightAware ADS-B (EDDT / TXL)
11:33AM 52.7860 13.1644 83° East 320 368 9,300 -1,200 Descending FlightAware ADS-B (EDDT / TXL)
11:33AM 52.7846 13.2025 98° East 311 358 9,000 -1,440 Descending FlightAware ADS-B (EDDT / TXL)
11:34AM 52.7813 13.2375 98° East 308 354 8,600 -1,200 Descending FlightAware ADS-B (EDDT / TXL)
11:34AM 52.7782 13.2724 98° East 303 349 8,400 -1,020 Descending FlightAware ADS-B (EDDT / TXL)
11:34AM 52.7752 13.3065 99° East 301 346 8,100 -840 Descending FlightAware ADS-B (EDDT / TXL)
11:34AM 52.7720 13.3405 99° East 299 344 8,000 -1,020 Descending FlightAware ADS-B (EDDT / TXL)
11:35AM 52.7671 13.3736 107° East 299 344 7,600 -1,620 Descending FlightAware ADS-B (EDDT / TXL)
11:35AM 52.7605 13.4087 107° East 301 346 7,200 -1,620 Descending FlightAware ADS-B (EDDT / TXL)
11:35AM 52.7544 13.4419 107° East 300 345 6,800 -1,440 Descending FlightAware ADS-B (EDDT / TXL)
11:35AM 52.7485 13.4747 107° East 298 343 6,500 -1,140 Descending FlightAware ADS-B (EDDT / TXL)
11:36AM 52.7421 13.5093 107° East 293 337 6,200 -780 Descending FlightAware ADS-B (EDDT / TXL)
11:36AM 52.7362 13.5406 107° East 282 325 6,100 -420 Descending FlightAware ADS-B (EDDT / TXL)
11:36AM 52.7304 13.5727 107° East 271 312 6,000 -600 Descending FlightAware ADS-B (EDDT / TXL)
11:36AM 52.7219 13.6012 130° Southeast 252 290 5,800 -780 Descending FlightAware ADS-B (EDDB / SXF)
11:37AM 52.7090 13.6226 135° Southeast 243 280 5,600 -960 Descending FlightAware ADS-B (EDDT / TXL)
11:37AM 52.6970 13.6421 136° Southeast 243 280 5,300 -1,200 Descending FlightAware ADS-B (EDDT / TXL)
11:37AM 52.6828 13.6586 157° South 234 269 5,000 -1,200 Descending FlightAware ADS-B (EDDT / TXL)
11:38AM 52.6520 13.6707 168° South 228 262 4,400 -1,200 Descending FlightAware ADS-B (EDDT / TXL)
11:38AM 52.6362 13.6762 168° South 226 260 4,100 -1,020 Descending FlightAware ADS-B (EDDT / TXL)
11:38AM 52.6275 13.6778 177° South 222 255 4,000 -1,440 Descending FlightAware ADS-B (EDDB / SXF)
11:38AM 52.6218 13.6766 198° South 218 251 3,800 -1,500 Descending FlightAware ADS-B (EDDT / TXL)
11:38AM 52.6096 13.6640 223° Southwest 213 245 3,500 -1,140 Descending FlightAware ADS-B (EDDB / SXF)
11:39AM 52.5988 13.6407 236° Southwest 213 245 3,200 -540 Descending FlightAware ADS-B (EDDT / TXL)
11:39AM 52.5925 13.6167 249° West 214 246 3,200  Level FlightAware ADS-B (EDDT / TXL)
11:39AM 52.5888 13.5915 261° West 212 244 3,200  Level FlightAware ADS-B (EDDT / TXL)
11:39AM 52.5868 13.5667 263° West 199 229 3,200 -540 Level FlightAware ADS-B (EDDT / TXL)
11:40AM 52.5828 13.5240 260° West 183 211 2,800 -840 Descending FlightAware ADS-B (EDDT / TXL)
11:40AM 52.5808 13.5040 261° West 175 201 2,600 -840 Descending FlightAware ADS-B (EDDT / TXL)
11:41AM 52.5772 13.4677 261° West 158 182 2,200 -840 Descending FlightAware ADS-B (EDDB / SXF)
11:41AM 52.5754 13.4484 261° West 146 168 2,000 -780 Descending FlightAware ADS-B (EDDT / TXL)
11:41AM 52.5739 13.4325 261° West 139 160 1,800 -840 Descending FlightAware ADS-B (EDDT / TXL)
11:41AM 52.5724 13.4174 262° West 131 151 1,600 -840 Descending FlightAware ADS-B (EDDT / TXL)
11:42AM 52.5710 13.4027 261° West 128 147 1,400 -780 Descending FlightAware ADS-B (EDDT / TXL)
11:42AM 52.5693 13.3853 261° West 129 148 1,200 -660 Descending FlightAware ADS-B (EDDB / SXF)
11:42AM 52.5675 13.3664 261° West 126 145 1,000 -600 Descending FlightAware ADS-B (EDDB / SXF)
11:43AM 52.5656 13.3476 261° West 131 151 800 -660 Descending FlightAware ADS-B (EDDB / SXF)
11:43AM 52.5647 13.3378 261° West 134 154 600 -720 Descending FlightAware ADS-B (EDDT / TXL)
11:46AM 52.5597 13.2877 261° West  Level Estimated
11:47AM 52.5597 13.2877 North  Level Estimated
11:48AM 52.5597 13.2877 North  Level Estimated
11:49AM 52.5597 13.2877 North  Level Estimated